Time;durP1;ratioP1;P1;durP2;ratioP2;P2;SDS_P1;SDS_P2;PMS_P1;PMS_P2;Temp;Humidity;BMP_temperature;BMP_pressure;BME280_temperature;BME280_humidity;BME280_pressure;Samples;Min_cycle;Max_cycle;Signal;HPM_P1;HPM_P2
2022/06/23 00:02:02;;;;;;;11.05;4.63;;;21.40;58.90;;;;;;5049706;28;20489;-65
2022/06/23 00:04:32;;;;;;;9.75;4.72;;;21.40;59.00;;;;;;5045584;28;20021;-65
2022/06/23 00:07:04;;;;;;;8.07;4.43;;;21.40;59.10;;;;;;5046477;28;20104;-63
2022/06/23 00:10:01;;;;;;;9.30;4.47;;;21.40;59.10;;;;;;5054394;28;20321;-64
2022/06/23 00:12:36;;;;;;;7.65;4.25;;;21.40;59.10;;;;;;5043878;28;20051;-64
2022/06/23 00:15:02;;;;;;;14.00;4.43;;;21.30;59.10;;;;;;5055312;28;20126;-63
2022/06/23 00:17:40;;;;;;;9.77;4.40;;;21.30;59.20;;;;;;5046477;28;20064;-63
2022/06/23 00:20:30;;;;;;;11.00;5.07;;;21.30;59.30;;;;;;5052657;28;20115;-64
2022/06/23 00:23:05;;;;;;;9.80;4.28;;;21.30;59.40;;;;;;5045833;28;20342;-64
2022/06/23 00:25:42;;;;;;;8.70;4.43;;;21.20;59.40;;;;;;5054249;28;20033;-64
2022/06/23 00:28:45;;;;;;;8.38;4.50;;;21.20;59.70;;;;;;5054086;28;20040;-64
2022/06/23 00:31:26;;;;;;;9.70;4.95;;;21.20;59.80;;;;;;5051018;28;20470;-64
2022/06/23 00:33:53;;;;;;;10.88;4.95;;;21.10;59.80;;;;;;5047472;28;20041;-63
2022/06/23 00:36:38;;;;;;;9.20;4.90;;;21.10;59.90;;;;;;5053667;28;20033;-64
2022/06/23 00:39:05;;;;;;;10.20;5.35;;;21.10;60.00;;;;;;5048857;28;20044;-64
2022/06/23 00:41:36;;;;;;;9.63;4.85;;;21.00;60.10;;;;;;5053071;28;20072;-63
2022/06/23 00:44:13;;;;;;;10.63;4.80;;;21.00;60.30;;;;;;5054592;28;20443;-63
2022/06/23 00:46:48;;;;;;;11.88;4.90;;;20.90;60.30;;;;;;5048548;28;20045;-64
2022/06/23 00:49:31;;;;;;;12.70;4.85;;;20.90;60.40;;;;;;5050436;28;20025;-64
2022/06/23 00:52:10;;;;;;;8.07;4.82;;;20.90;60.50;;;;;;5051877;28;20056;-64
2022/06/23 00:54:41;;;;;;;11.90;5.30;;;20.90;60.60;;;;;;5049367;28;20025;-63
2022/06/23 00:57:39;;;;;;;10.35;5.18;;;20.80;60.60;;;;;;5056199;28;20036;-64
2022/06/23 01:00:24;;;;;;;9.20;5.05;;;20.80;60.70;;;;;;5040957;28;20107;-65
2022/06/23 01:02:58;;;;;;;9.30;4.90;;;20.80;60.80;;;;;;5046005;28;20026;-64
2022/06/23 01:05:42;;;;;;;10.23;5.43;;;20.70;60.90;;;;;;5041857;28;20133;-64
2022/06/23 01:08:18;;;;;;;10.43;5.07;;;20.70;61.00;;;;;;5048832;28;20395;-64
2022/06/23 01:11:04;;;;;;;9.30;4.90;;;20.70;61.00;;;;;;5043896;28;20094;-65
2022/06/23 01:13:40;;;;;;;8.85;5.00;;;20.70;61.10;;;;;;5042687;28;20032;-65
2022/06/23 01:16:09;;;;;;;8.70;4.72;;;20.70;61.10;;;;;;5047106;28;20045;-64
2022/06/23 01:19:19;;;;;;;8.18;4.93;;;20.70;61.20;;;;;;5042806;28;20037;-64
2022/06/23 01:21:52;;;;;;;9.38;4.95;;;20.70;61.30;;;;;;5036184;28;20025;-65
2022/06/23 01:24:30;;;;;;;8.43;4.93;;;20.60;61.20;;;;;;5038952;28;20093;-64
2022/06/23 01:27:14;;;;;;;11.48;5.05;;;20.60;61.20;;;;;;5048564;28;20106;-64
2022/06/23 01:29:52;;;;;;;9.35;5.00;;;20.60;61.20;;;;;;5041808;28;20040;-65
2022/06/23 01:32:23;;;;;;;10.13;5.50;;;20.60;61.20;;;;;;5051002;28;20454;-65
2022/06/23 01:34:55;;;;;;;8.40;4.75;;;20.60;61.30;;;;;;5036749;28;20037;-61
2022/06/23 01:37:44;;;;;;;8.20;5.13;;;20.50;61.30;;;;;;5050341;28;20473;-60
2022/06/23 01:40:27;;;;;;;9.30;5.22;;;20.50;61.40;;;;;;5043211;28;20332;-61
2022/06/23 01:42:58;;;;;;;10.88;5.78;;;20.50;61.30;;;;;;5050007;28;20056;-61
2022/06/23 01:45:32;;;;;;;;;;;20.50;61.40;;;;;;5043979;28;20053;-61
2022/06/23 01:48:10;;;;;;;8.80;4.57;;;20.50;61.20;;;;;;5048480;28;20333;-63
2022/06/23 01:50:42;;;;;;;8.70;4.97;;;20.40;62.00;;;;;;5043822;28;20425;-63
2022/06/23 01:53:17;;;;;;;9.95;4.80;;;20.50;61.40;;;;;;5054442;28;20124;-64
2022/06/23 01:56:20;;;;;;;10.05;5.40;;;20.40;61.40;;;;;;5047907;28;20021;-63
2022/06/23 01:59:08;;;;;;;8.90;5.43;;;20.40;61.50;;;;;;5043564;28;20446;-63
2022/06/23 02:01:54;;;;;;;9.90;5.55;;;20.40;61.50;;;;;;5047065;28;20028;-63
2022/06/23 02:04:46;;;;;;;9.80;5.00;;;20.30;61.60;;;;;;5045024;28;20024;-63
2022/06/23 02:07:32;;;;;;;11.95;5.32;;;20.30;61.70;;;;;;5049871;28;20037;-63
2022/06/23 02:10:20;;;;;;;8.93;5.47;;;20.30;61.70;;;;;;5042065;28;20021;-64
2022/06/23 02:12:55;;;;;;;8.95;4.90;;;20.20;61.60;;;;;;5050847;28;20044;-64
2022/06/23 02:15:44;;;;;;;11.93;5.25;;;20.20;61.60;;;;;;5027916;28;20049;-64
2022/06/23 02:18:27;;;;;;;8.35;4.88;;;20.20;61.70;;;;;;5044849;28;20025;-63
2022/06/23 02:21:20;;;;;;;11.32;5.22;;;20.20;61.70;;;;;;5043728;28;20057;-63
2022/06/23 02:24:12;;;;;;;9.23;5.05;;;20.20;61.70;;;;;;5044029;28;20024;-63
2022/06/23 02:27:00;;;;;;;9.88;5.10;;;20.20;61.60;;;;;;5047405;28;20035;-63
2022/06/23 02:29:35;;;;;;;11.43;4.97;;;20.20;61.60;;;;;;5045771;28;20028;-65
2022/06/23 02:32:15;;;;;;;10.88;5.60;;;20.10;61.50;;;;;;5039438;28;20044;-64
2022/06/23 02:34:56;;;;;;;9.10;4.82;;;20.10;61.50;;;;;;5047303;28;20025;-65
2022/06/23 02:37:46;;;;;;;9.05;5.13;;;20.10;61.50;;;;;;5043210;28;20047;-62
2022/06/23 02:40:25;;;;;;;7.75;4.93;;;20.10;61.40;;;;;;5044883;28;20044;-62
2022/06/23 02:43:13;;;;;;;11.60;5.35;;;20.10;61.50;;;;;;5043143;28;20109;-63
2022/06/23 02:45:57;;;;;;;10.32;4.72;;;20.10;61.50;;;;;;5040967;28;20064;-65
2022/06/23 02:49:04;;;;;;;8.57;5.18;;;20.10;61.50;;;;;;5038596;28;20038;-63
2022/06/23 02:51:56;;;;;;;9.30;4.90;;;20.00;61.40;;;;;;5029677;28;20122;-64
2022/06/23 02:54:46;;;;;;;10.35;5.35;;;20.00;61.50;;;;;;5022881;28;20053;-65
2022/06/23 02:57:43;;;;;;;9.75;4.60;;;20.00;61.50;;;;;;5021593;28;20048;-65
2022/06/23 03:00:15;;;;;;;14.07;5.97;;;20.00;61.50;;;;;;5017818;28;20040;-64
2022/06/23 03:03:18;;;;;;;9.20;5.25;;;20.00;61.50;;;;;;5024842;28;20038;-64
2022/06/23 03:05:48;;;;;;;8.07;5.15;;;20.00;61.50;;;;;;5005726;28;20136;-65
2022/06/23 03:08:27;;;;;;;11.20;4.97;;;19.90;61.50;;;;;;5008893;28;20081;-68
2022/06/23 03:10:57;;;;;;;9.05;5.50;;;19.90;61.50;;;;;;5017828;28;20045;-64
2022/06/23 03:13:40;;;;;;;9.15;4.63;;;19.90;61.60;;;;;;5019754;28;20124;-63
2022/06/23 03:16:15;;;;;;;9.25;4.65;;;19.90;61.60;;;;;;5010171;28;20053;-63
2022/06/23 03:19:10;;;;;;;11.00;5.68;;;19.90;61.50;;;;;;5008783;28;20115;-63
2022/06/23 03:21:46;;;;;;;9.55;4.88;;;19.90;61.50;;;;;;5000574;28;20120;-63
2022/06/23 03:24:25;;;;;;;10.27;5.22;;;19.90;62.30;;;;;;5020963;28;20029;-64
2022/06/23 03:26:56;;;;;;;13.52;4.88;;;19.90;61.70;;;;;;5027032;28;20073;-64
2022/06/23 03:29:46;;;;;;;8.85;5.05;;;19.90;61.70;;;;;;5040672;28;20044;-64
2022/06/23 03:32:32;;;;;;;9.33;5.17;;;19.90;61.70;;;;;;5040546;28;20032;-64
2022/06/23 03:35:14;;;;;;;12.43;5.03;;;19.80;61.60;;;;;;5028138;28;20033;-64
2022/06/23 03:38:02;;;;;;;7.57;4.47;;;19.80;61.60;;;;;;5037237;28;20040;-64
2022/06/23 03:43:32;;;;;;;9.23;4.88;;;19.80;61.70;;;;;;5037695;28;20094;-64
2022/06/23 03:46:06;;;;;;;9.45;4.88;;;19.80;61.80;;;;;;5034198;28;20095;-64
2022/06/23 03:49:07;;;;;;;10.18;5.07;;;19.70;61.70;;;;;;5042285;28;20493;-64
2022/06/23 03:51:41;;;;;;;10.57;5.00;;;19.70;61.70;;;;;;5032671;28;20045;-64
2022/06/23 03:54:16;;;;;;;10.32;4.90;;;19.70;61.80;;;;;;5045256;28;20026;-64
2022/06/23 03:56:47;;;;;;;9.80;5.35;;;19.70;61.80;;;;;;5038019;28;20045;-64
2022/06/23 03:59:35;;;;;;;9.45;5.05;;;19.80;61.90;;;;;;5047406;28;20030;-63
2022/06/23 04:02:16;;;;;;;8.95;4.97;;;19.70;61.80;;;;;;5039020;28;20133;-67
2022/06/23 04:05:09;;;;;;;9.30;5.20;;;19.70;61.80;;;;;;5044093;28;20458;-62
2022/06/23 04:07:52;;;;;;;9.45;5.00;;;19.70;61.70;;;;;;5036832;28;20075;-63
2022/06/23 04:10:29;;;;;;;9.45;5.30;;;19.70;61.80;;;;;;5033289;28;20166;-62
2022/06/23 04:12:59;;;;;;;10.25;5.38;;;19.80;61.80;;;;;;5039057;28;20456;-63
2022/06/23 04:15:37;;;;;;;11.93;4.77;;;19.80;61.70;;;;;;5032839;28;20184;-62
2022/06/23 04:18:19;;;;;;;9.20;5.07;;;19.80;61.80;;;;;;5036913;28;20021;-63
2022/06/23 04:20:59;;;;;;;9.50;4.72;;;19.80;61.80;;;;;;5038619;28;20474;-63
2022/06/23 04:23:33;;;;;;;12.20;4.93;;;19.80;61.90;;;;;;5038208;28;20358;-63
2022/06/23 04:26:07;;;;;;;11.00;5.57;;;19.80;61.90;;;;;;5045908;28;20037;-63
2022/06/23 04:28:46;;;;;;;8.38;4.90;;;19.80;61.80;;;;;;5049286;28;20033;-63
2022/06/23 04:31:21;;;;;;;11.07;5.25;;;19.80;61.80;;;;;;5055261;28;20025;-63
2022/06/23 04:33:48;;;;;;;10.07;5.25;;;19.80;61.80;;;;;;5042318;28;20091;-63
2022/06/23 04:36:25;;;;;;;12.93;5.28;;;19.80;61.70;;;;;;5050858;28;20053;-63
2022/06/23 04:39:07;;;;;;;9.48;4.47;;;19.90;61.70;;;;;;5051113;28;20362;-63
2022/06/23 04:41:46;;;;;;;7.85;4.82;;;19.90;61.70;;;;;;5047452;28;20028;-62
2022/06/23 04:44:20;;;;;;;10.65;5.65;;;19.90;61.70;;;;;;5052946;28;20025;-62
2022/06/23 04:47:07;;;;;;;8.15;4.72;;;19.90;61.70;;;;;;5046418;28;20051;-62
2022/06/23 04:49:42;;;;;;;9.63;5.40;;;19.90;61.60;;;;;;5059277;28;20022;-63
2022/06/23 04:52:40;;;;;;;8.20;4.75;;;19.90;61.50;;;;;;5051469;28;20203;-63
2022/06/23 04:55:13;;;;;;;8.45;4.82;;;20.00;61.50;;;;;;5047765;28;20025;-63
2022/06/23 04:57:54;;;;;;;10.60;5.35;;;20.00;61.40;;;;;;5049583;28;20112;-62
2022/06/23 05:00:27;;;;;;;10.00;4.82;;;20.10;61.30;;;;;;5050837;28;20449;-62
2022/06/23 05:03:17;;;;;;;9.52;4.82;;;20.10;61.20;;;;;;5049092;28;20026;-63
2022/06/23 05:05:43;;;;;;;10.77;4.97;;;20.20;60.90;;;;;;5038140;28;20029;-62
2022/06/23 05:08:26;;;;;;;11.20;5.72;;;20.30;60.90;;;;;;5040138;28;20049;-62
2022/06/23 05:11:14;;;;;;;9.40;4.88;;;20.40;60.60;;;;;;5043795;28;20041;-62
2022/06/23 05:13:52;;;;;;;8.80;5.03;;;20.60;60.20;;;;;;5046445;28;20462;-62
2022/06/23 05:16:33;;;;;;;8.75;4.70;;;21.50;58.70;;;;;;5050586;28;20048;-62
2022/06/23 05:19:00;;;;;;;;;;;21.80;57.80;;;;;;5049364;28;20025;-62
2022/06/23 05:21:38;;;;;;;8.52;4.15;;;22.00;57.60;;;;;;5047015;28;19908;-62
2022/06/23 05:24:14;;;;;;;8.10;4.30;;;22.10;57.40;;;;;;5053467;28;20049;-62
2022/06/23 05:26:52;;;;;;;9.23;4.68;;;22.10;57.20;;;;;;5043460;28;20335;-63
2022/06/23 05:29:52;;;;;;;10.23;4.90;;;22.20;56.90;;;;;;5056177;28;20040;-68
2022/06/23 05:32:17;;;;;;;9.90;4.57;;;22.20;56.80;;;;;;5024819;28;20055;-67
2022/06/23 05:34:58;;;;;;;11.02;5.53;;;22.10;56.80;;;;;;5055629;28;20430;-64
2022/06/23 05:37:41;;;;;;;8.60;4.40;;;22.10;56.70;;;;;;5051692;28;20453;-64
2022/06/23 05:40:40;;;;;;;10.27;4.63;;;22.10;56.70;;;;;;5044128;28;20112;-64
2022/06/23 05:43:11;;;;;;;8.13;4.28;;;22.10;56.60;;;;;;5035171;28;20040;-64
2022/06/23 05:45:47;;;;;;;9.05;5.13;;;22.10;56.50;;;;;;5034207;28;20037;-64
2022/06/23 05:48:24;;;;;;;10.85;4.38;;;22.10;56.40;;;;;;5042716;28;20045;-68
2022/06/23 05:51:07;;;;;;;9.52;4.88;;;22.10;56.40;;;;;;5038704;28;20021;-64
2022/06/23 05:54:00;;;;;;;10.55;4.50;;;22.20;56.40;;;;;;5039725;28;20029;-64
2022/06/23 05:56:36;;;;;;;9.45;4.85;;;22.20;56.30;;;;;;5034523;28;20040;-64
2022/06/23 05:59:12;;;;;;;8.10;4.60;;;22.30;56.10;;;;;;5039396;28;20088;-68
2022/06/23 06:01:49;;;;;;;8.93;4.57;;;22.30;56.00;;;;;;5034249;28;20037;-70
2022/06/23 06:04:30;;;;;;;8.02;4.50;;;22.40;55.80;;;;;;5033665;28;20087;-69
2022/06/23 06:06:56;;;;;;;8.75;4.55;;;22.50;55.60;;;;;;5035377;28;20045;-69
2022/06/23 06:09:37;;;;;;;9.25;4.85;;;22.50;55.40;;;;;;5032702;28;20033;-68
2022/06/23 06:12:17;;;;;;;8.40;4.53;;;22.60;55.40;;;;;;5019297;28;20017;-63
2022/06/23 06:14:54;;;;;;;8.95;4.63;;;22.70;55.20;;;;;;5034516;28;20046;-62
2022/06/23 06:17:23;;;;;;;6.97;4.38;;;22.80;55.10;;;;;;5037276;28;20033;-62
2022/06/23 06:19:50;;;;;;;8.77;5.00;;;22.80;55.00;;;;;;5034120;28;20075;-65
2022/06/23 06:22:55;;;;;;;10.05;4.95;;;22.90;54.90;;;;;;5041494;28;20161;-65
2022/06/23 06:25:33;;;;;;;9.02;4.30;;;23.00;54.70;;;;;;5044757;28;20455;-65
2022/06/23 06:28:14;;;;;;;9.35;4.93;;;23.20;54.70;;;;;;5044144;28;20035;-64
2022/06/23 06:30:44;;;;;;;9.50;5.43;;;23.30;54.40;;;;;;5041629;28;20035;-64
2022/06/23 06:33:39;;;;;;;9.65;4.40;;;23.40;54.40;;;;;;5042667;28;20038;-64
2022/06/23 06:36:44;;;;;;;8.45;4.65;;;23.50;54.30;;;;;;5040413;28;20040;-64
2022/06/23 06:39:18;;;;;;;9.82;4.82;;;23.60;54.10;;;;;;5041465;28;20060;-64
2022/06/23 06:41:53;;;;;;;9.35;4.95;;;23.80;53.80;;;;;;5042065;28;20033;-64
2022/06/23 06:44:19;;;;;;;9.38;4.72;;;23.90;53.70;;;;;;5036802;28;20124;-64
2022/06/23 06:46:45;;;;;;;9.90;5.20;;;24.00;53.60;;;;;;5045112;28;20025;-64
2022/06/23 06:49:20;;;;;;;9.52;4.60;;;24.10;53.30;;;;;;5035163;28;20029;-64
2022/06/23 06:51:47;;;;;;;9.10;5.05;;;24.20;53.10;;;;;;5044956;28;20600;-64
2022/06/23 06:54:17;;;;;;;10.10;4.70;;;24.30;53.10;;;;;;5045275;28;20025;-64
2022/06/23 06:56:50;;;;;;;11.25;4.78;;;24.40;52.90;;;;;;5049696;28;20112;-64
2022/06/23 07:00:00;;;;;;;9.88;4.93;;;24.50;52.80;;;;;;5038384;28;20040;-62
2022/06/23 07:02:35;;;;;;;8.95;4.60;;;24.70;52.60;;;;;;5004999;28;20049;-62
2022/06/23 07:05:23;;;;;;;8.30;4.78;;;24.90;52.50;;;;;;5004248;28;20041;-62
2022/06/23 07:07:56;;;;;;;8.73;4.78;;;25.00;52.20;;;;;;5006265;28;20042;-62
2022/06/23 07:10:29;;;;;;;9.63;5.18;;;25.10;51.90;;;;;;5000366;28;20038;-62
2022/06/23 07:13:03;;;;;;;10.90;5.07;;;25.30;51.80;;;;;;5001644;28;20034;-64
2022/06/23 07:15:40;;;;;;;8.40;4.45;;;25.40;51.50;;;;;;4980896;28;20529;-62
2022/06/23 07:18:27;;;;;;;7.88;4.95;;;25.50;51.40;;;;;;5006358;28;20038;-63
2022/06/23 07:21:10;;;;;;;8.15;4.53;;;25.70;51.10;;;;;;5005417;28;20467;-64
2022/06/23 07:23:54;;;;;;;11.93;4.82;;;25.80;50.80;;;;;;5005743;28;20037;-64
2022/06/23 07:26:20;;;;;;;10.18;4.50;;;26.00;50.40;;;;;;5005642;28;20041;-64
2022/06/23 07:28:52;;;;;;;8.02;4.50;;;26.10;50.30;;;;;;4976665;28;20090;-64
2022/06/23 07:31:29;;;;;;;7.82;4.40;;;26.20;50.00;;;;;;5000892;28;20038;-64
2022/06/23 07:34:03;;;;;;;8.48;4.85;;;26.40;49.70;;;;;;5005974;28;20023;-64
2022/06/23 07:36:39;;;;;;;9.05;4.70;;;26.50;49.40;;;;;;4983976;28;20060;-64
2022/06/23 07:39:08;;;;;;;9.05;4.85;;;26.60;49.10;;;;;;5044360;28;20477;-64
2022/06/23 07:41:44;;;;;;;11.32;5.25;;;26.70;48.80;;;;;;5039775;28;20454;-64
2022/06/23 07:44:28;;;;;;;8.00;4.00;;;26.80;48.60;;;;;;5041674;28;20059;-63
2022/06/23 07:46:54;;;;;;;8.95;4.35;;;26.90;48.40;;;;;;5044182;28;20045;-63
2022/06/23 07:49:20;;;;;;;8.73;4.93;;;27.10;48.30;;;;;;5036479;28;20021;-63
2022/06/23 07:51:46;;;;;;;10.88;5.15;;;27.20;48.10;;;;;;5042590;28;20021;-63
2022/06/23 07:54:18;;;;;;;9.07;4.70;;;27.40;47.90;;;;;;5045795;28;20036;-63
2022/06/23 07:56:44;;;;;;;7.88;4.20;;;27.50;47.70;;;;;;5043123;28;20100;-63
2022/06/23 07:59:15;;;;;;;7.35;4.07;;;27.60;47.60;;;;;;5046486;28;20108;-63
2022/06/23 08:02:10;;;;;;;12.55;5.18;;;27.70;47.40;;;;;;5039947;28;20057;-64
2022/06/23 08:04:49;;;;;;;9.40;4.95;;;27.80;47.10;;;;;;5048308;28;20031;-64
2022/06/23 08:07:15;;;;;;;7.57;4.05;;;27.80;46.90;;;;;;5040505;28;20363;-63
2022/06/23 08:09:46;;;;;;;8.73;4.30;;;27.90;47.00;;;;;;5041330;28;20028;-64
2022/06/23 08:18:37;;;;;;;9.02;4.57;;;28.30;46.70;;;;;;5041842;28;20025;-63
2022/06/23 08:21:54;;;;;;;8.80;4.78;;;28.40;46.50;;;;;;5037887;28;20038;-63
2022/06/23 08:24:23;;;;;;;7.80;4.63;;;28.60;46.50;;;;;;5042012;28;20060;-63
2022/06/23 08:26:58;;;;;;;8.55;4.07;;;28.70;46.50;;;;;;5057563;28;20029;-63
2022/06/23 08:29:28;;;;;;;7.60;3.97;;;28.80;46.30;;;;;;5057130;28;20029;-63
2022/06/23 08:31:54;;;;;;;8.52;4.72;;;28.90;46.20;;;;;;5057331;28;20032;-63
2022/06/23 08:34:20;;;;;;;9.90;4.85;;;29.00;46.10;;;;;;5057011;28;20458;-63
2022/06/23 08:36:58;;;;;;;7.40;4.13;;;29.10;46.00;;;;;;5057094;28;20347;-63
2022/06/23 08:39:29;;;;;;;8.48;4.55;;;29.10;45.80;;;;;;5057220;28;20423;-63
2022/06/23 08:42:01;;;;;;;7.68;4.38;;;29.20;45.80;;;;;;5057120;28;20118;-63
2022/06/23 08:44:43;;;;;;;9.32;4.22;;;29.30;45.90;;;;;;5044390;28;20022;-64
2022/06/23 08:47:24;;;;;;;9.13;4.20;;;29.40;45.70;;;;;;5048196;28;20040;-63
2022/06/23 08:50:19;;;;;;;8.75;4.50;;;29.50;45.70;;;;;;5042274;28;20434;-63
2022/06/23 08:53:00;;;;;;;7.47;4.07;;;29.70;45.60;;;;;;5037390;28;20029;-63
2022/06/23 08:55:33;;;;;;;8.70;3.95;;;29.80;45.40;;;;;;5056690;28;20437;-63
2022/06/23 08:58:03;;;;;;;9.77;4.57;;;29.90;45.30;;;;;;5055412;28;20033;-63
2022/06/23 09:00:53;;;;;;;8.63;4.53;;;29.90;45.20;;;;;;5056606;28;20041;-63
2022/06/23 09:03:45;;;;;;;8.03;3.90;;;30.10;45.10;;;;;;5053975;28;20033;-63
2022/06/23 09:06:11;;;;;;;9.13;3.97;;;30.20;45.20;;;;;;5052089;28;20037;-63
2022/06/23 09:09:19;;;;;;;6.72;3.83;;;30.30;45.00;;;;;;5036263;28;20139;-63
2022/06/23 09:12:09;;;;;;;7.88;3.92;;;30.50;44.70;;;;;;5041705;28;20408;-63
2022/06/23 09:14:56;;;;;;;7.72;3.70;;;30.60;44.60;;;;;;5050286;28;20158;-63
2022/06/23 09:17:34;;;;;;;9.77;4.15;;;30.60;44.60;;;;;;5050359;28;20136;-63
2022/06/23 09:20:20;;;;;;;8.05;3.47;;;30.60;44.50;;;;;;5052040;28;20040;-63
2022/06/23 09:23:07;;;;;;;6.75;3.75;;;30.60;44.70;;;;;;5049732;28;20029;-63
2022/06/23 09:25:43;;;;;;;8.10;3.70;;;30.70;44.80;;;;;;5039512;28;20036;-63
2022/06/23 09:28:17;;;;;;;7.22;3.40;;;30.80;44.60;;;;;;5044538;28;20208;-63
2022/06/23 09:30:45;;;;;;;7.63;3.47;;;30.80;44.50;;;;;;5055929;28;20033;-63
2022/06/23 09:33:49;;;;;;;7.93;3.17;;;31.00;44.30;;;;;;5054436;28;20525;-64
2022/06/23 09:36:39;;;;;;;9.15;3.88;;;31.00;44.10;;;;;;5043616;28;20036;-63
2022/06/23 09:39:24;;;;;;;8.38;3.60;;;31.10;44.10;;;;;;5053032;28;20029;-63
2022/06/23 09:42:11;;;;;;;9.15;3.40;;;31.10;43.80;;;;;;5038123;28;20027;-63
2022/06/23 09:44:43;;;;;;;8.93;3.30;;;31.10;43.80;;;;;;5054661;28;20074;-63
2022/06/23 09:47:32;;;;;;;8.13;3.13;;;31.10;43.80;;;;;;5039819;28;20033;-63
2022/06/23 09:50:23;;;;;;;6.88;3.05;;;31.20;43.90;;;;;;5048852;28;20040;-64
2022/06/23 09:53:02;;;;;;;;;;;31.30;43.70;;;;;;5048639;28;20064;-64
2022/06/23 09:55:33;;;;;;;6.97;3.25;;;31.40;43.80;;;;;;5050275;28;19933;-63
2022/06/23 09:58:16;;;;;;;11.45;3.67;;;31.40;43.70;;;;;;5045593;28;20112;-63
2022/06/23 10:00:51;;;;;;;7.75;3.28;;;31.50;43.40;;;;;;5046843;28;20450;-64
2022/06/23 10:03:25;;;;;;;9.13;4.28;;;31.50;43.50;;;;;;5045495;28;20028;-64
2022/06/23 10:06:12;;;;;;;9.65;3.58;;;31.60;43.30;;;;;;5047717;28;20096;-64
2022/06/23 10:08:56;;;;;;;9.48;3.40;;;31.60;43.30;;;;;;5041027;28;20036;-64
2022/06/23 10:11:48;;;;;;;7.75;3.58;;;31.70;43.50;;;;;;5051844;28;20144;-63
2022/06/23 10:14:22;;;;;;;7.70;3.50;;;31.80;43.40;;;;;;5047641;28;20111;-64
2022/06/23 10:16:54;;;;;;;7.03;3.45;;;31.90;43.30;;;;;;5048627;28;20029;-63
2022/06/23 10:19:22;;;;;;;8.70;3.65;;;32.00;43.20;;;;;;5041753;28;20124;-63
2022/06/23 10:22:06;;;;;;;9.60;3.60;;;32.10;43.10;;;;;;5048663;28;20037;-63
2022/06/23 10:25:23;;;;;;;8.38;3.22;;;32.10;43.00;;;;;;5038759;28;20033;-64
2022/06/23 10:28:00;;;;;;;8.07;3.20;;;32.10;43.20;;;;;;5019033;28;20048;-63
2022/06/23 10:30:40;;;;;;;8.90;3.78;;;32.10;43.00;;;;;;5017992;28;20459;-63
2022/06/23 10:33:28;;;;;;;8.90;3.50;;;32.10;42.80;;;;;;5021699;28;20067;-64
2022/06/23 10:36:27;;;;;;;6.68;3.20;;;32.20;43.20;;;;;;5025573;28;20040;-64
2022/06/23 10:39:13;;;;;;;9.35;3.80;;;32.20;43.10;;;;;;5018661;28;20049;-64
2022/06/23 10:41:53;;;;;;;5.93;2.90;;;32.30;42.90;;;;;;5031418;28;20067;-65
2022/06/23 10:44:30;;;;;;;7.87;3.63;;;32.30;43.20;;;;;;5021075;28;20236;-64
2022/06/23 10:47:29;;;;;;;7.68;3.47;;;32.40;43.10;;;;;;5018366;28;20112;-64
2022/06/23 10:50:13;;;;;;;8.68;3.28;;;32.40;42.90;;;;;;5000687;28;20128;-64
2022/06/23 10:53:02;;;;;;;8.48;3.30;;;32.50;42.80;;;;;;5011053;28;20386;-64
2022/06/23 10:55:36;;;;;;;7.35;2.63;;;32.50;42.80;;;;;;5012483;28;20403;-64
2022/06/23 10:58:48;;;;;;;7.38;3.03;;;32.50;42.80;;;;;;5030147;28;20080;-64
2022/06/23 11:01:35;;;;;;;8.32;2.65;;;32.50;42.90;;;;;;5031815;28;20359;-64
2022/06/23 11:04:16;;;;;;;8.75;3.08;;;32.30;42.90;;;;;;5035712;28;20033;-64
2022/06/23 11:06:53;;;;;;;7.75;3.10;;;32.30;43.20;;;;;;5046483;28;20029;-64
2022/06/23 11:09:39;;;;;;;7.32;2.83;;;32.40;42.80;;;;;;5039393;28;20037;-64
2022/06/23 11:12:23;;;;;;;9.57;2.83;;;32.50;42.50;;;;;;5039109;28;20029;-65
2022/06/23 11:15:08;;;;;;;6.40;3.10;;;32.70;42.40;;;;;;5040490;28;20049;-64
2022/06/23 11:17:56;;;;;;;7.70;3.00;;;32.80;42.20;;;;;;5046213;28;20485;-66
2022/06/23 11:20:59;;;;;;;8.05;3.00;;;32.70;41.90;;;;;;5044236;28;20362;-66
2022/06/23 11:23:59;;;;;;;9.10;3.38;;;32.60;41.90;;;;;;5026969;28;20124;-65
2022/06/23 11:26:43;;;;;;;8.90;2.83;;;32.70;42.00;;;;;;5042080;28;20036;-66
2022/06/23 11:29:17;;;;;;;7.75;2.60;;;32.80;42.00;;;;;;5041476;28;20128;-66
2022/06/23 11:32:20;;;;;;;8.30;3.03;;;32.80;42.00;;;;;;5050229;28;20082;-66
2022/06/23 11:34:57;;;;;;;7.00;3.13;;;33.00;41.80;;;;;;5049536;28;20064;-65
2022/06/23 11:37:58;;;;;;;7.97;3.25;;;33.00;41.80;;;;;;5037361;28;20056;-66
2022/06/23 11:40:42;;;;;;;8.68;3.10;;;33.00;41.40;;;;;;5046611;28;20037;-63
2022/06/23 11:43:38;;;;;;;4.78;2.35;;;32.90;41.50;;;;;;5046359;28;20450;-63
2022/06/23 11:46:15;;;;;;;6.50;2.67;;;33.00;41.70;;;;;;5050583;28;20033;-63
2022/06/23 11:48:55;;;;;;;6.32;2.97;;;33.00;41.80;;;;;;5057534;28;20062;-63
2022/06/23 11:51:39;;;;;;;7.07;3.33;;;33.10;41.70;;;;;;5053429;28;20381;-65
2022/06/23 11:54:45;;;;;;;7.35;3.10;;;33.00;41.60;;;;;;5056399;28;20406;-63
2022/06/23 11:57:29;;;;;;;8.10;3.38;;;32.90;41.60;;;;;;5054720;28;20037;-64
2022/06/23 12:00:03;;;;;;;9.32;3.20;;;32.80;41.80;;;;;;5055088;28;20438;-66
2022/06/23 12:03:00;;;;;;;7.25;3.50;;;32.80;41.60;;;;;;5048161;28;20036;-65
2022/06/23 12:05:37;;;;;;;7.85;3.03;;;32.70;41.60;;;;;;5040256;28;20365;-65
2022/06/23 12:08:35;;;;;;;8.20;3.42;;;32.60;41.80;;;;;;5055602;28;20133;-65
2022/06/23 12:11:01;;;;;;;9.10;3.40;;;32.50;42.00;;;;;;5051180;28;20033;-66
2022/06/23 12:13:28;;;;;;;9.38;3.33;;;32.40;42.10;;;;;;5044188;28;20021;-64
2022/06/23 12:15:55;;;;;;;6.82;2.97;;;32.30;42.60;;;;;;5057291;28;20040;-65
2022/06/23 12:18:52;;;;;;;10.57;3.70;;;32.20;42.00;;;;;;5052659;28;20028;-65
2022/06/23 12:21:48;;;;;;;7.47;3.10;;;32.20;42.20;;;;;;5044908;28;20044;-65
2022/06/23 12:24:40;;;;;;;6.13;2.78;;;32.00;42.20;;;;;;5055947;28;20031;-65
2022/06/23 12:27:12;;;;;;;11.10;3.40;;;31.70;42.30;;;;;;5057519;28;20037;-65
2022/06/23 12:29:44;;;;;;;9.45;3.63;;;31.60;42.60;;;;;;5052570;28;20033;-65
2022/06/23 12:32:16;;;;;;;8.43;3.40;;;31.60;42.90;;;;;;5044780;28;20095;-66
2022/06/23 12:35:02;;;;;;;14.90;4.28;;;31.50;42.90;;;;;;5055568;28;20025;-66
2022/06/23 12:37:39;;;;;;;8.35;3.25;;;31.50;43.10;;;;;;5056338;28;20108;-65
2022/06/23 12:40:41;;;;;;;6.65;3.00;;;31.50;43.10;;;;;;5051663;28;20075;-65
2022/06/23 12:43:13;;;;;;;10.05;4.20;;;31.50;43.00;;;;;;5041450;28;20036;-65
2022/06/23 12:45:59;;;;;;;8.60;3.63;;;31.50;43.00;;;;;;5050956;28;20463;-65
2022/06/23 12:48:52;;;;;;;7.78;3.60;;;31.40;43.20;;;;;;5050862;28;20503;-66
2022/06/23 12:51:24;;;;;;;8.43;3.67;;;31.20;43.50;;;;;;5051041;28;20124;-65
2022/06/23 12:54:01;;;;;;;8.73;3.92;;;31.20;44.20;;;;;;5054972;28;20043;-66
2022/06/23 12:56:36;;;;;;;7.75;3.72;;;31.10;43.70;;;;;;5041019;28;20353;-65
2022/06/23 12:59:15;;;;;;;9.02;3.60;;;31.00;43.70;;;;;;5049319;28;20044;-65
2022/06/23 13:01:58;;;;;;;8.48;3.58;;;30.90;43.80;;;;;;5040229;28;20146;-65
2022/06/23 13:04:51;;;;;;;8.60;3.47;;;30.70;44.00;;;;;;5048767;28;20045;-65
2022/06/23 13:07:26;;;;;;;10.63;5.35;;;30.70;44.20;;;;;;5047525;28;20040;-66
2022/06/23 13:10:30;;;;;;;9.93;5.35;;;30.80;44.20;;;;;;5047027;28;20125;-66
2022/06/23 13:13:10;;;;;;;12.02;5.88;;;30.70;44.10;;;;;;5042180;28;20045;-67
2022/06/23 13:15:44;;;;;;;8.95;5.03;;;30.60;44.60;;;;;;5053874;28;20040;-66
2022/06/23 13:18:35;;;;;;;12.93;4.60;;;30.50;44.70;;;;;;5047880;28;20174;-66
2022/06/23 13:21:20;;;;;;;9.15;3.90;;;30.40;44.70;;;;;;5041574;28;20038;-65
2022/06/23 13:23:51;;;;;;;9.38;3.85;;;30.50;44.70;;;;;;5055808;28;20033;-65
2022/06/23 13:26:46;;;;;;;8.55;3.33;;;30.40;44.60;;;;;;5041581;28;20044;-65
2022/06/23 13:29:51;;;;;;;8.50;3.10;;;30.50;44.70;;;;;;5042795;28;20124;-65
2022/06/23 13:32:23;;;;;;;7.63;3.17;;;30.40;44.60;;;;;;5043031;28;20527;-65
2022/06/23 13:34:58;;;;;;;9.15;3.85;;;30.30;44.60;;;;;;5042830;28;20036;-66
2022/06/23 13:37:59;;;;;;;11.98;4.55;;;30.40;44.80;;;;;;5048170;28;20026;-65
2022/06/23 13:40:49;;;;;;;8.18;2.75;;;30.40;44.90;;;;;;5033450;28;20073;-66
2022/06/23 13:43:28;;;;;;;8.98;3.05;;;30.40;44.80;;;;;;5046658;28;20477;-65
2022/06/23 13:46:11;;;;;;;6.53;2.95;;;30.40;44.70;;;;;;5039496;28;20120;-66
2022/06/23 13:49:14;;;;;;;8.68;3.08;;;30.50;44.60;;;;;;5043392;28;20112;-65
2022/06/23 13:51:50;;;;;;;8.88;3.00;;;30.50;44.50;;;;;;5050826;28;20033;-65
2022/06/23 13:54:27;;;;;;;7.53;3.10;;;30.60;44.50;;;;;;5046996;28;20025;-66
2022/06/23 13:57:22;;;;;;;13.05;3.10;;;30.60;44.50;;;;;;5044892;28;20342;-65
2022/06/23 14:00:14;;;;;;;10.00;3.10;;;30.60;44.40;;;;;;5041382;28;20039;-65
2022/06/23 14:03:01;;;;;;;9.07;2.70;;;30.70;45.20;;;;;;5047476;28;20106;-66
2022/06/23 14:05:51;;;;;;;8.63;3.40;;;30.70;44.60;;;;;;5043138;28;20043;-65
2022/06/23 14:08:41;;;;;;;9.40;3.00;;;30.60;44.60;;;;;;5051723;28;20025;-65